FDX24J EDDF-LFPG
Flight info
| Callsign | FDX24J |
|---|---|
| Flight time | N/A |
| Altitude | 24000 |
| Route | SOBRA2L/18 SOBRA Y180 DIK UN857 TOLVU/N0430F230 DCT RAPOR DCT VEDUS |
| Aircraft | B77L/H-SDE1E2E3FGHIJ2J3J4J5M1RWXY/LB1D1 |
Departure
| Time | N/A |
|---|---|
| Airport | Frankfurt Main Airport (EDDF) |
Arrival
| Time | 2026-05-08 21:17 |
|---|---|
| Airport | Charles de Gaulle International Airport (LFPG) |
| Time | Latitude | Longitude | Altitude | Speed | Heading |
|---|---|---|---|---|---|
| 2026-05-08 20:48 | 49.63379 | 5.40836 | 24154 ft | 474 kts | 250° |
| 2026-05-08 20:48 | 49.62226 | 5.36055 | 24100 ft | 476 kts | 251° |
| 2026-05-08 20:48 | 49.61165 | 5.31215 | 24104 ft | 476 kts | 253° |
| 2026-05-08 20:48 | 49.60205 | 5.26340 | 24099 ft | 476 kts | 257° |
| 2026-05-08 20:49 | 49.59563 | 5.21345 | 24101 ft | 475 kts | 263° |
| 2026-05-08 20:49 | 49.59186 | 5.16296 | 24107 ft | 474 kts | 267° |
| 2026-05-08 20:49 | 49.59106 | 5.11224 | 24098 ft | 473 kts | 272° |
| 2026-05-08 20:49 | 49.59178 | 5.06160 | 24104 ft | 473 kts | 272° |
| 2026-05-08 20:50 | 49.59263 | 5.01097 | 24090 ft | 473 kts | 272° |
| 2026-05-08 20:50 | 49.59284 | 4.96126 | 24087 ft | 473 kts | 269° |
| 2026-05-08 20:50 | 49.58976 | 4.91073 | 24079 ft | 474 kts | 263° |
| 2026-05-08 20:50 | 49.58485 | 4.86046 | 24094 ft | 474 kts | 263° |
| 2026-05-08 20:51 | 49.57991 | 4.81017 | 24087 ft | 475 kts | 263° |
| 2026-05-08 20:51 | 49.57503 | 4.76070 | 24068 ft | 458 kts | 263° |
| 2026-05-08 20:51 | 49.57031 | 4.71317 | 24066 ft | 439 kts | 263° |
| 2026-05-08 20:51 | 49.56575 | 4.66762 | 24065 ft | 424 kts | 263° |
| 2026-05-08 20:52 | 49.56082 | 4.62291 | 24076 ft | 423 kts | 262° |
| 2026-05-08 20:52 | 49.55563 | 4.57832 | 24084 ft | 423 kts | 262° |
| 2026-05-08 20:52 | 49.55036 | 4.53394 | 24071 ft | 415 kts | 262° |
| 2026-05-08 20:52 | 49.54522 | 4.49081 | 24064 ft | 403 kts | 262° |
| 2026-05-08 20:53 | 49.54023 | 4.44876 | 24060 ft | 398 kts | 263° |
| 2026-05-08 20:53 | 49.53525 | 4.40634 | 24092 ft | 410 kts | 263° |
| 2026-05-08 20:53 | 49.53011 | 4.36227 | 24094 ft | 424 kts | 263° |
| 2026-05-08 20:53 | 49.52485 | 4.31737 | 24083 ft | 426 kts | 262° |
| 2026-05-08 20:54 | 49.51964 | 4.27324 | 24065 ft | 420 kts | 262° |
| 2026-05-08 20:54 | 49.51446 | 4.22980 | 24054 ft | 406 kts | 262° |
| 2026-05-08 20:54 | 49.50939 | 4.18743 | 23817 ft | 399 kts | 262° |
| 2026-05-08 20:54 | 49.50436 | 4.14516 | 22962 ft | 406 kts | 262° |
| 2026-05-08 20:55 | 49.49923 | 4.10199 | 22067 ft | 414 kts | 261° |
| 2026-05-08 20:55 | 49.49407 | 4.05883 | 21702 ft | 407 kts | 261° |
| 2026-05-08 20:55 | 49.48894 | 4.01624 | 21231 ft | 404 kts | 261° |
| 2026-05-08 20:55 | 49.48394 | 3.97487 | 20804 ft | 400 kts | 261° |
| 2026-05-08 20:56 | 49.47886 | 3.93303 | 20334 ft | 397 kts | 260° |
| 2026-05-08 20:56 | 49.47382 | 3.89157 | 19912 ft | 393 kts | 260° |
| 2026-05-08 20:56 | 49.46880 | 3.85033 | 19472 ft | 390 kts | 260° |
| 2026-05-08 20:56 | 49.46381 | 3.80948 | 19041 ft | 387 kts | 259° |
| 2026-05-08 20:57 | 49.45885 | 3.76899 | 18607 ft | 384 kts | 259° |
| 2026-05-08 20:57 | 49.45390 | 3.72876 | 18147 ft | 381 kts | 259° |
| 2026-05-08 20:57 | 49.44899 | 3.68890 | 17670 ft | 378 kts | 259° |
| 2026-05-08 20:57 | 49.44410 | 3.64941 | 17219 ft | 375 kts | 259° |
| 2026-05-08 20:58 | 49.43925 | 3.61026 | 16779 ft | 371 kts | 259° |
| 2026-05-08 20:58 | 49.43444 | 3.57156 | 16364 ft | 367 kts | 259° |
| 2026-05-08 20:58 | 49.42968 | 3.53328 | 15950 ft | 363 kts | 258° |
| 2026-05-08 20:58 | 49.42493 | 3.49533 | 15534 ft | 359 kts | 258° |
| 2026-05-08 20:59 | 49.42019 | 3.45783 | 15163 ft | 355 kts | 257° |
| 2026-05-08 20:59 | 49.41345 | 3.42194 | 15090 ft | 347 kts | 249° |
| 2026-05-08 20:59 | 49.40439 | 3.38722 | 15102 ft | 355 kts | 246° |
| 2026-05-08 20:59 | 49.39447 | 3.35210 | 15098 ft | 361 kts | 246° |
| 2026-05-08 21:00 | 49.38439 | 3.31668 | 15085 ft | 362 kts | 246° |
| 2026-05-08 21:00 | 49.37448 | 3.28135 | 15075 ft | 360 kts | 246° |
| 2026-05-08 21:00 | 49.36472 | 3.24608 | 15073 ft | 358 kts | 247° |
| 2026-05-08 21:00 | 49.35510 | 3.21092 | 15074 ft | 357 kts | 247° |
| 2026-05-08 21:01 | 49.34555 | 3.17581 | 15078 ft | 355 kts | 247° |
| 2026-05-08 21:01 | 49.33933 | 3.15284 | 15065 ft | 349 kts | 247° |
| 2026-05-08 21:01 | 49.33019 | 3.11907 | 15044 ft | 337 kts | 247° |
| 2026-05-08 21:01 | 49.32138 | 3.08651 | 15070 ft | 325 kts | 247° |
| 2026-05-08 21:02 | 49.31254 | 3.05387 | 15100 ft | 341 kts | 247° |
| 2026-05-08 21:02 | 49.30335 | 3.02002 | 14696 ft | 345 kts | 247° |
| 2026-05-08 21:02 | 49.29433 | 2.98681 | 13943 ft | 346 kts | 247° |
| 2026-05-08 21:02 | 49.28506 | 2.95273 | 13172 ft | 347 kts | 247° |
| 2026-05-08 21:03 | 49.27583 | 2.91885 | 12775 ft | 339 kts | 247° |
| 2026-05-08 21:03 | 49.26698 | 2.88639 | 12379 ft | 322 kts | 247° |
| 2026-05-08 21:03 | 49.25852 | 2.85541 | 11876 ft | 309 kts | 247° |
| 2026-05-08 21:03 | 49.25031 | 2.82535 | 11358 ft | 306 kts | 247° |
| 2026-05-08 21:04 | 49.24202 | 2.79509 | 11214 ft | 309 kts | 247° |
| 2026-05-08 21:04 | 49.23385 | 2.76529 | 11063 ft | 295 kts | 247° |
| 2026-05-08 21:04 | 49.22604 | 2.73684 | 11089 ft | 288 kts | 247° |
| 2026-05-08 21:04 | 49.21836 | 2.70886 | 11068 ft | 283 kts | 247° |
| 2026-05-08 21:05 | 49.21076 | 2.68122 | 11082 ft | 281 kts | 247° |
| 2026-05-08 21:05 | 49.20317 | 2.65363 | 11085 ft | 282 kts | 247° |
| 2026-05-08 21:05 | 49.19552 | 2.62594 | 11083 ft | 285 kts | 247° |
| 2026-05-08 21:05 | 49.18778 | 2.59794 | 11085 ft | 285 kts | 247° |
| 2026-05-08 21:06 | 49.18094 | 2.56986 | 11035 ft | 279 kts | 258° |
| 2026-05-08 21:06 | 49.17953 | 2.54030 | 10804 ft | 278 kts | 269° |
| 2026-05-08 21:06 | 49.17802 | 2.51097 | 10438 ft | 276 kts | 262° |
| 2026-05-08 21:06 | 49.17550 | 2.48181 | 10047 ft | 276 kts | 262° |
| 2026-05-08 21:07 | 49.17296 | 2.45325 | 9642 ft | 275 kts | 262° |
| 2026-05-08 21:07 | 49.17038 | 2.42441 | 9231 ft | 274 kts | 262° |
| 2026-05-08 21:07 | 49.16724 | 2.39589 | 8797 ft | 270 kts | 253° |
| 2026-05-08 21:07 | 49.16102 | 2.36874 | 8300 ft | 269 kts | 248° |
| 2026-05-08 21:08 | 49.15401 | 2.34250 | 7695 ft | 266 kts | 247° |
| 2026-05-08 21:08 | 49.14693 | 2.31635 | 7035 ft | 267 kts | 247° |
| 2026-05-08 21:08 | 49.13986 | 2.29020 | 6435 ft | 265 kts | 247° |
| 2026-05-08 21:08 | 49.13292 | 2.26431 | 6110 ft | 253 kts | 246° |
| 2026-05-08 21:09 | 49.12644 | 2.24006 | 6004 ft | 250 kts | 247° |
| 2026-05-08 21:09 | 49.11987 | 2.21538 | 6007 ft | 252 kts | 247° |
| 2026-05-08 21:09 | 49.11322 | 2.19069 | 6004 ft | 249 kts | 247° |
| 2026-05-08 21:09 | 49.10663 | 2.16650 | 5781 ft | 245 kts | 246° |
| 2026-05-08 21:10 | 49.10016 | 2.14260 | 5433 ft | 241 kts | 247° |
| 2026-05-08 21:10 | 49.09217 | 2.12096 | 5178 ft | 229 kts | 222° |
| 2026-05-08 21:10 | 49.07893 | 2.10922 | 4864 ft | 216 kts | 188° |
| 2026-05-08 21:10 | 49.06461 | 2.11078 | 4405 ft | 206 kts | 155° |
| 2026-05-08 21:11 | 49.05276 | 2.12309 | 4197 ft | 209 kts | 139° |
| 2026-05-08 21:11 | 49.04174 | 2.13783 | 4026 ft | 211 kts | 137° |
| 2026-05-08 21:11 | 49.03094 | 2.15253 | 4000 ft | 206 kts | 137° |
| 2026-05-08 21:11 | 49.02036 | 2.16697 | 3983 ft | 202 kts | 137° |
| 2026-05-08 21:12 | 49.01143 | 2.18263 | 3973 ft | 193 kts | 111° |
| 2026-05-08 21:12 | 49.00945 | 2.20228 | 4017 ft | 193 kts | 92° |
| 2026-05-08 21:12 | 49.00918 | 2.22344 | 4016 ft | 199 kts | 90° |
| 2026-05-08 21:12 | 49.00974 | 2.24445 | 3987 ft | 198 kts | 86° |
| 2026-05-08 21:13 | 49.01073 | 2.26516 | 3715 ft | 197 kts | 86° |
| 2026-05-08 21:13 | 49.01182 | 2.28566 | 3460 ft | 191 kts | 86° |
| 2026-05-08 21:13 | 49.01291 | 2.30570 | 3216 ft | 189 kts | 85° |
| 2026-05-08 21:13 | 49.01399 | 2.32568 | 2962 ft | 189 kts | 85° |
| 2026-05-08 21:14 | 49.01506 | 2.34552 | 2752 ft | 185 kts | 85° |
| 2026-05-08 21:14 | 49.01608 | 2.36451 | 2478 ft | 172 kts | 85° |
| 2026-05-08 21:14 | 49.01700 | 2.38169 | 2247 ft | 154 kts | 84° |
| 2026-05-08 21:14 | 49.01783 | 2.39707 | 2055 ft | 140 kts | 85° |
| 2026-05-08 21:15 | 49.01862 | 2.41172 | 1867 ft | 139 kts | 85° |
| 2026-05-08 21:15 | 49.01941 | 2.42649 | 1693 ft | 140 kts | 84° |
| 2026-05-08 21:15 | 49.02021 | 2.44135 | 1501 ft | 140 kts | 85° |
| 2026-05-08 21:15 | 49.02101 | 2.45611 | 1300 ft | 139 kts | 85° |
| 2026-05-08 21:16 | 49.02181 | 2.47104 | 1092 ft | 144 kts | 84° |
| 2026-05-08 21:16 | 49.02250 | 2.48642 | 938 ft | 147 kts | 84° |
| 2026-05-08 21:16 | 49.02333 | 2.50197 | 733 ft | 146 kts | 82° |
| 2026-05-08 21:16 | 49.02436 | 2.51719 | 499 ft | 142 kts | 83° |
| 2026-05-08 21:17 | 49.02514 | 2.53175 | 362 ft | 128 kts | 89° |
| 2026-05-08 21:17 | 49.02578 | 2.54327 | 364 ft | 87 kts | 83° |
| 2026-05-08 21:17 | 49.02606 | 2.55010 | 364 ft | 51 kts | 90° |
| 2026-05-08 21:17 | 49.02552 | 2.55340 | 362 ft | 22 kts | 114° |
| 2026-05-08 21:18 | 49.02491 | 2.55543 | 365 ft | 16 kts | 119° |
| 2026-05-08 21:18 | 49.02394 | 2.55614 | 360 ft | 17 kts | 173° |
| 2026-05-08 21:18 | 49.02270 | 2.55629 | 361 ft | 19 kts | 176° |
| 2026-05-08 21:18 | 49.02168 | 2.55641 | 365 ft | 6 kts | 175° |
| 2026-05-08 21:19 | 49.02166 | 2.55642 | 365 ft | 0 kts | 175° |
| 2026-05-08 21:21 | 49.02165 | 2.55642 | 364 ft | 1 kts | 175° |
| 2026-05-08 21:21 | 49.02141 | 2.55645 | 361 ft | 7 kts | 175° |
| 2026-05-08 21:21 | 49.02066 | 2.55654 | 366 ft | 15 kts | 175° |
| 2026-05-08 21:21 | 49.01952 | 2.55669 | 359 ft | 11 kts | 175° |
| 2026-05-08 21:22 | 49.01889 | 2.55575 | 365 ft | 18 kts | 260° |
| 2026-05-08 21:22 | 49.01875 | 2.55353 | 365 ft | 24 kts | 265° |
| 2026-05-08 21:22 | 49.01860 | 2.55070 | 367 ft | 29 kts | 265° |
| 2026-05-08 21:22 | 49.01844 | 2.54775 | 365 ft | 24 kts | 265° |
| 2026-05-08 21:23 | 49.01833 | 2.54563 | 359 ft | 19 kts | 265° |
| 2026-05-08 21:23 | 49.01823 | 2.54373 | 359 ft | 15 kts | 265° |
| 2026-05-08 21:23 | 49.01814 | 2.54214 | 365 ft | 15 kts | 265° |
| 2026-05-08 21:23 | 49.01806 | 2.54056 | 362 ft | 15 kts | 265° |
| 2026-05-08 21:24 | 49.01798 | 2.53896 | 361 ft | 15 kts | 265° |
| 2026-05-08 21:24 | 49.01789 | 2.53736 | 365 ft | 15 kts | 265° |
| 2026-05-08 21:24 | 49.01781 | 2.53577 | 360 ft | 15 kts | 265° |
| 2026-05-08 21:24 | 49.01772 | 2.53417 | 363 ft | 15 kts | 264° |
| 2026-05-08 21:25 | 49.01760 | 2.53257 | 359 ft | 16 kts | 264° |
| 2026-05-08 21:25 | 49.01752 | 2.53093 | 364 ft | 16 kts | 266° |
| 2026-05-08 21:25 | 49.01734 | 2.52932 | 364 ft | 16 kts | 244° |
| 2026-05-08 21:25 | 49.01663 | 2.52808 | 365 ft | 16 kts | 239° |
| 2026-05-08 21:26 | 49.01610 | 2.52668 | 367 ft | 16 kts | 218° |
| 2026-05-08 21:26 | 49.01546 | 2.52541 | 364 ft | 16 kts | 257° |
| 2026-05-08 21:26 | 49.01535 | 2.52376 | 360 ft | 16 kts | 266° |
| 2026-05-08 21:26 | 49.01527 | 2.52211 | 367 ft | 16 kts | 265° |
| 2026-05-08 21:27 | 49.01518 | 2.52045 | 360 ft | 16 kts | 265° |
| 2026-05-08 21:27 | 49.01507 | 2.51880 | 363 ft | 16 kts | 264° |
| 2026-05-08 21:27 | 49.01498 | 2.51715 | 366 ft | 16 kts | 265° |
| 2026-05-08 21:27 | 49.01491 | 2.51549 | 362 ft | 16 kts | 263° |
| 2026-05-08 21:28 | 49.01478 | 2.51384 | 359 ft | 16 kts | 265° |
| 2026-05-08 21:28 | 49.01470 | 2.51217 | 367 ft | 16 kts | 266° |
| 2026-05-08 21:28 | 49.01462 | 2.51052 | 361 ft | 16 kts | 266° |
| 2026-05-08 21:28 | 49.01454 | 2.50885 | 365 ft | 16 kts | 266° |
| 2026-05-08 21:29 | 49.01446 | 2.50719 | 360 ft | 16 kts | 266° |
| 2026-05-08 21:29 | 49.01438 | 2.50553 | 362 ft | 16 kts | 265° |
| 2026-05-08 21:29 | 49.01426 | 2.50388 | 366 ft | 16 kts | 262° |
| 2026-05-08 21:29 | 49.01416 | 2.50222 | 365 ft | 16 kts | 265° |
| 2026-05-08 21:30 | 49.01409 | 2.50056 | 359 ft | 16 kts | 268° |
| 2026-05-08 21:30 | 49.01404 | 2.49943 | 359 ft | 9 kts | 266° |
| 2026-05-08 21:30 | 49.01399 | 2.49845 | 366 ft | 9 kts | 265° |
| 2026-05-08 21:30 | 49.01393 | 2.49744 | 363 ft | 10 kts | 265° |
| 2026-05-08 21:31 | 49.01384 | 2.49644 | 365 ft | 8 kts | 251° |
| 2026-05-08 21:31 | 49.01364 | 2.49620 | 366 ft | 1 kts | 201° |
| 2026-05-08 21:31 | 49.01353 | 2.49617 | 365 ft | 2 kts | 190° |
| 2026-05-08 21:31 | 49.01335 | 2.49613 | 365 ft | 3 kts | 189° |
| 2026-05-08 21:32 | 49.01311 | 2.49615 | 364 ft | 4 kts | 176° |
| 2026-05-08 21:32 | 49.01291 | 2.49618 | 366 ft | 0 kts | 175° |
| 2026-05-08 21:32 | 49.01290 | 2.49618 | 366 ft | 0 kts | 175° |